This is the latest recevied weather packets stored in our database for station/object p43g-13. If no packets are shown the sender has not sent any weather packets the latest 10 day(s).
| Time | Temp. | Humidity | Pressure | Rain* | Wind** | Luminosity | Snow |
|---|---|---|---|---|---|---|---|
| 1787500169 | 31.67° C | 75% | 1012.3 hPa | 0 mm | - | 994 W/m² | - |
| 1787499868 | 32.22° C | 72% | 1012.2 hPa | 0 mm | - | 292 W/m² | - |
| 1787499570 | 32.22° C | 74% | 1012.5 hPa | 0 mm | - | 308 W/m² | - |
| 1787499268 | 32.22° C | 70% | 1012.2 hPa | 0 mm | - | 1071 W/m² | - |
| 1787498969 | 32.22° C | 72% | 1012.3 hPa | 0 mm | - | 1075 W/m² | - |
| 1787498668 | 32.22° C | 70% | 1012.3 hPa | 0 mm | - | 319 W/m² | - |
| 1787498370 | 32.22° C | 72% | 1012.6 hPa | 0 mm | - | 668 W/m² | - |
| 1787498068 | 31.67° C | 71% | 1012.4 hPa | 0 mm | - | 995 W/m² | - |
| 1787497769 | 31.67° C | 72% | 1012.5 hPa | 0 mm | - | 412 W/m² | - |
| 1787497468 | 31.67° C | 73% | 1012.6 hPa | 0 mm | - | 411 W/m² | - |
| 1787497170 | 31.67° C | 73% | 1012.6 hPa | 0 mm | - | 230 W/m² | - |
| 1787496868 | 31.67° C | 72% | 1012.8 hPa | 0 mm | - | 365 W/m² | - |
| 1787496569 | 31.11° C | 74% | 1012.7 hPa | 0 mm | - | 443 W/m² | - |
| 1787496268 | 31.67° C | 73% | 1012.4 hPa | 0 mm | - | 801 W/m² | - |
| 1787495970 | 31.11° C | 74% | 1012.6 hPa | 0 mm | - | 248 W/m² | - |
| 1787495668 | 31.11° C | 75% | 1012.7 hPa | 0 mm | - | 781 W/m² | - |
| 1787495369 | 31.11° C | 74% | 1012.7 hPa | 0 mm | - | 217 W/m² | - |
| 1787495068 | 31.11° C | 75% | 1012.6 hPa | 0 mm | - | 836 W/m² | - |
| 1787494770 | 31.11° C | 74% | 1012.6 hPa | 0 mm | - | 822 W/m² | - |
| 1787494468 | 31.11° C | 76% | 1012.6 hPa | 0 mm | - | 417 W/m² | - |
| 1787494169 | 31.11° C | 75% | 1012.5 hPa | 0 mm | - | 829 W/m² | - |
| 1787493869 | 31.11° C | 75% | 1012.5 hPa | 0 mm | - | 707 W/m² | - |
| 1787493569 | 30.56° C | 76% | 1012.6 hPa | 0 mm | - | 715 W/m² | - |
| 1787493268 | 31.11° C | 75% | 1012.7 hPa | 0 mm | - | 751 W/m² | - |
| 1787492970 | 31.11° C | 76% | 1012.6 hPa | 0 mm | - | 286 W/m² | - |
* Rain latest hour (hover to see other rain measurements)
** Current wind speed in m/s (hover to see current wind gust speed)